createdAt,value
2018-11-02T00:00:13.214Z,0.00
2018-11-02T00:01:13.136Z,0.00
2018-11-02T00:02:13.152Z,0.00
2018-11-02T00:03:13.186Z,0.00
2018-11-02T00:04:13.209Z,0.00
2018-11-02T00:05:13.205Z,0.00
2018-11-02T00:06:13.275Z,0.00
2018-11-02T00:07:13.247Z,0.00
2018-11-02T00:08:13.265Z,0.00
2018-11-02T00:09:13.287Z,0.00
2018-11-02T00:10:13.308Z,0.00
2018-11-02T00:11:13.329Z,0.00
2018-11-02T00:12:13.373Z,0.00
2018-11-02T00:13:13.355Z,0.00
2018-11-02T00:14:13.374Z,0.00
2018-11-02T00:15:13.397Z,0.00
2018-11-02T00:16:13.424Z,0.00
2018-11-02T00:17:13.435Z,0.00
2018-11-02T00:18:13.458Z,0.00
2018-11-02T00:19:13.476Z,0.00
2018-11-02T00:20:13.505Z,0.00
2018-11-02T00:21:13.509Z,0.00
2018-11-02T00:22:13.533Z,0.00
2018-11-02T00:23:13.568Z,0.00
2018-11-02T00:24:13.572Z,0.00
2018-11-02T00:25:13.583Z,0.00
2018-11-02T00:26:13.605Z,0.00
2018-11-02T00:27:13.622Z,0.00
2018-11-02T00:28:13.640Z,0.00
2018-11-02T00:29:13.664Z,0.00
2018-11-02T00:30:13.684Z,0.00
2018-11-02T00:31:13.697Z,0.00
2018-11-02T00:32:13.722Z,0.00
2018-11-02T00:33:13.766Z,0.00
2018-11-02T00:34:13.754Z,0.00
2018-11-02T00:35:13.772Z,0.00
2018-11-02T00:36:13.792Z,0.00
2018-11-02T00:37:13.817Z,0.00
2018-11-02T00:38:13.840Z,0.00
2018-11-02T00:39:13.854Z,0.00
2018-11-02T00:40:13.888Z,0.00
2018-11-02T00:41:13.883Z,0.00
2018-11-02T00:42:13.906Z,0.00
2018-11-02T00:43:13.937Z,0.00
2018-11-02T00:44:14.030Z,0.00
2018-11-02T00:45:13.961Z,0.00
2018-11-02T00:46:13.992Z,0.00
2018-11-02T00:47:14.094Z,0.00
2018-11-02T00:48:14.032Z,0.00
2018-11-02T00:49:14.040Z,0.00
2018-11-02T00:50:14.072Z,0.00
2018-11-02T00:51:14.095Z,0.00
2018-11-02T00:52:14.095Z,0.00
2018-11-02T00:53:14.117Z,0.00
2018-11-02T00:54:14.144Z,0.00
2018-11-02T00:55:14.156Z,0.00
2018-11-02T00:56:14.196Z,0.00
2018-11-02T00:57:14.190Z,0.00
2018-11-02T00:58:14.221Z,0.00
2018-11-02T00:59:14.230Z,0.00
2018-11-02T01:00:14.248Z,0.00
2018-11-02T01:01:14.265Z,0.00
2018-11-02T01:02:14.308Z,0.00
2018-11-02T01:03:14.309Z,0.00
2018-11-02T01:04:14.342Z,0.00
2018-11-02T01:05:14.343Z,0.00
2018-11-02T01:06:14.369Z,0.00
2018-11-02T01:07:14.380Z,0.00
2018-11-02T01:08:14.399Z,0.00
2018-11-02T01:09:14.439Z,0.00
2018-11-02T01:10:14.478Z,0.00
2018-11-02T01:11:14.478Z,0.00
2018-11-02T01:12:14.484Z,0.00
2018-11-02T01:13:14.494Z,0.00
2018-11-02T01:14:14.516Z,0.00
2018-11-02T01:15:14.532Z,0.00
2018-11-02T01:16:14.559Z,0.00
2018-11-02T01:17:14.583Z,0.00
2018-11-02T01:18:14.615Z,0.00
2018-11-02T01:19:14.610Z,0.00
2018-11-02T01:20:14.629Z,0.00
2018-11-02T01:21:14.645Z,0.00
2018-11-02T01:22:14.668Z,0.00
2018-11-02T01:23:14.688Z,0.00
2018-11-02T01:24:14.715Z,0.00
2018-11-02T01:25:14.727Z,0.00
2018-11-02T01:26:14.758Z,0.00
2018-11-02T01:27:14.761Z,0.00
2018-11-02T01:28:14.826Z,0.00
2018-11-02T01:29:14.819Z,0.00
2018-11-02T01:30:14.820Z,0.00
2018-11-02T01:31:14.842Z,0.00
2018-11-02T01:32:14.856Z,0.00
2018-11-02T01:33:14.907Z,0.00
2018-11-02T01:34:14.903Z,0.00
2018-11-02T01:35:14.916Z,0.00
2018-11-02T01:36:14.937Z,0.00
2018-11-02T01:37:14.948Z,0.00
2018-11-02T01:38:14.972Z,0.00
2018-11-02T01:39:14.989Z,0.00
2018-11-02T01:40:15.084Z,0.00
2018-11-02T01:41:15.030Z,0.00
2018-11-02T01:42:15.050Z,0.00
2018-11-02T01:43:15.069Z,0.00
2018-11-02T01:44:15.083Z,0.00
2018-11-02T01:45:15.106Z,0.00
2018-11-02T01:46:15.121Z,0.00
2018-11-02T01:47:15.139Z,0.00
2018-11-02T01:48:15.165Z,0.00
2018-11-02T01:49:15.186Z,0.00
2018-11-02T01:50:15.197Z,0.00
2018-11-02T01:51:15.213Z,0.00
2018-11-02T01:52:15.247Z,0.00
2018-11-02T01:53:15.258Z,0.00
2018-11-02T01:54:15.279Z,0.00
2018-11-02T01:55:15.295Z,0.00
2018-11-02T01:56:15.315Z,0.00
2018-11-02T01:57:15.328Z,0.00
2018-11-02T01:58:15.352Z,0.00
2018-11-02T01:59:15.378Z,0.00
2018-11-02T02:00:15.385Z,0.00
2018-11-02T02:01:15.400Z,0.00
2018-11-02T02:02:15.425Z,0.00
2018-11-02T02:03:15.441Z,0.00
2018-11-02T02:04:15.464Z,0.00
2018-11-02T02:05:15.482Z,0.00
2018-11-02T02:06:15.516Z,0.00
2018-11-02T02:07:15.515Z,0.00
2018-11-02T02:08:15.540Z,0.00
2018-11-02T02:09:15.557Z,0.00
2018-11-02T02:10:15.603Z,0.00
2018-11-02T02:11:15.590Z,0.00
2018-11-02T02:12:15.610Z,0.00
2018-11-02T02:13:15.742Z,0.00
2018-11-02T02:14:15.690Z,0.00
2018-11-02T02:15:15.667Z,0.00
2018-11-02T02:16:15.684Z,0.00
2018-11-02T02:17:15.704Z,0.00
2018-11-02T02:18:15.726Z,0.00
2018-11-02T02:19:15.739Z,0.00
2018-11-02T02:20:15.761Z,0.00
2018-11-02T02:21:15.776Z,0.00
2018-11-02T02:22:15.794Z,0.00
2018-11-02T02:23:15.815Z,0.00
2018-11-02T02:24:15.831Z,0.00
2018-11-02T02:25:15.857Z,0.00
2018-11-02T02:26:15.874Z,0.00
2018-11-02T02:27:15.890Z,0.00
2018-11-02T02:28:15.908Z,0.00
2018-11-02T02:29:15.931Z,0.00
2018-11-02T02:30:15.948Z,0.00
2018-11-02T02:31:15.971Z,0.00
2018-11-02T02:32:15.986Z,0.00
2018-11-02T02:33:16.000Z,0.00
2018-11-02T02:34:16.022Z,0.00
2018-11-02T02:35:16.040Z,0.00
2018-11-02T02:36:16.070Z,0.00
2018-11-02T02:37:16.076Z,0.00
2018-11-02T02:38:16.103Z,0.00
2018-11-02T02:39:16.117Z,0.00
2018-11-02T02:40:16.138Z,0.00
2018-11-02T02:41:16.172Z,0.00
2018-11-02T02:42:16.199Z,0.00
2018-11-02T02:43:16.187Z,0.00
2018-11-02T02:44:16.208Z,0.00
2018-11-02T02:45:16.229Z,0.00
2018-11-02T02:46:16.248Z,0.00
2018-11-02T02:47:16.265Z,0.00
2018-11-02T02:48:16.312Z,0.00
2018-11-02T02:49:16.302Z,0.00
2018-11-02T02:50:16.322Z,0.00
2018-11-02T02:51:16.342Z,0.00
2018-11-02T02:52:16.364Z,0.00
2018-11-02T02:53:16.375Z,0.00
2018-11-02T02:54:16.401Z,0.00
2018-11-02T02:55:16.420Z,0.00
2018-11-02T02:56:16.439Z,0.00
2018-11-02T02:57:16.454Z,0.00
2018-11-02T02:58:16.470Z,0.00
2018-11-02T02:59:16.500Z,0.00
2018-11-02T03:00:16.508Z,0.00
2018-11-02T03:01:16.540Z,0.00
2018-11-02T03:02:16.545Z,0.00
2018-11-02T03:03:16.593Z,0.00
2018-11-02T03:04:16.592Z,0.00
2018-11-02T03:05:16.607Z,0.00
2018-11-02T03:06:16.623Z,0.00
2018-11-02T03:07:16.655Z,0.00
2018-11-02T03:08:16.662Z,0.00
2018-11-02T03:09:16.681Z,0.00
2018-11-02T03:10:16.770Z,0.00
2018-11-02T03:11:16.830Z,0.00
2018-11-02T03:12:16.738Z,0.00
2018-11-02T03:13:16.760Z,0.00
2018-11-02T03:14:16.776Z,0.00
2018-11-02T03:15:16.830Z,0.00
2018-11-02T03:16:16.822Z,0.00
2018-11-02T03:17:16.833Z,0.00
2018-11-02T03:18:16.864Z,0.00
2018-11-02T03:19:16.875Z,0.00
2018-11-02T03:20:16.893Z,0.00
2018-11-02T03:21:16.908Z,0.00
2018-11-02T03:22:16.938Z,0.00
2018-11-02T03:23:16.947Z,0.00
2018-11-02T03:24:16.966Z,0.00
2018-11-02T03:25:16.986Z,0.00
2018-11-02T03:26:17.009Z,0.00
2018-11-02T03:27:17.033Z,0.00
2018-11-02T03:28:17.042Z,0.00
2018-11-02T03:29:17.060Z,0.00
2018-11-02T03:30:17.089Z,0.00
2018-11-02T03:31:17.132Z,0.00
2018-11-02T03:32:17.126Z,0.00
2018-11-02T03:33:17.140Z,0.00
2018-11-02T03:34:17.155Z,0.00
2018-11-02T03:35:17.182Z,0.00
2018-11-02T03:36:17.196Z,0.00
2018-11-02T03:37:17.216Z,0.00
2018-11-02T03:38:17.229Z,0.00
2018-11-02T03:39:17.252Z,0.00
2018-11-02T03:40:17.273Z,0.00
2018-11-02T03:41:17.288Z,0.00
2018-11-02T03:42:17.313Z,0.00
2018-11-02T03:43:17.325Z,0.00
2018-11-02T03:44:17.351Z,0.00
2018-11-02T03:45:17.378Z,0.00
2018-11-02T03:46:17.384Z,0.00
2018-11-02T03:47:17.407Z,0.00
2018-11-02T03:48:17.422Z,0.00
2018-11-02T03:49:17.447Z,0.00
2018-11-02T03:50:17.477Z,0.00
2018-11-02T03:51:17.477Z,0.00
2018-11-02T03:52:17.505Z,0.00
2018-11-02T03:53:17.532Z,0.00
2018-11-02T03:54:17.538Z,0.00
2018-11-02T03:55:17.561Z,0.00
2018-11-02T03:56:17.576Z,0.00
2018-11-02T03:57:17.599Z,0.00
2018-11-02T03:58:17.640Z,0.00
2018-11-02T03:59:17.677Z,0.00
2018-11-02T04:00:17.665Z,0.00
2018-11-02T04:01:17.672Z,0.00
2018-11-02T04:02:17.692Z,0.00
2018-11-02T04:03:17.717Z,0.00
2018-11-02T04:04:17.731Z,0.00
2018-11-02T04:05:17.758Z,0.00
2018-11-02T04:06:17.772Z,0.00
2018-11-02T04:07:17.791Z,0.00
2018-11-02T04:08:17.823Z,0.00
2018-11-02T04:09:17.858Z,0.00
2018-11-02T04:10:17.847Z,0.00
2018-11-02T04:11:17.875Z,0.00
2018-11-02T04:12:17.895Z,0.00
2018-11-02T04:13:17.905Z,0.00
2018-11-02T04:14:17.924Z,0.00
2018-11-02T04:15:17.956Z,0.00
2018-11-02T04:16:17.965Z,0.00
2018-11-02T04:17:17.992Z,0.00
2018-11-02T04:18:18.003Z,0.00
2018-11-02T04:19:18.028Z,0.00
2018-11-02T04:20:18.041Z,0.00
2018-11-02T04:21:18.068Z,0.00
2018-11-02T04:22:18.099Z,0.00
2018-11-02T04:23:18.107Z,0.00
2018-11-02T04:24:18.125Z,0.00
2018-11-02T04:25:18.138Z,0.00
2018-11-02T04:26:18.167Z,0.00
2018-11-02T04:27:18.203Z,0.00
2018-11-02T04:28:18.200Z,0.00
2018-11-02T04:29:18.222Z,0.00
2018-11-02T04:30:18.236Z,0.00
2018-11-02T04:31:18.264Z,0.00
2018-11-02T04:32:18.277Z,0.00
2018-11-02T04:33:18.299Z,0.00
2018-11-02T04:34:18.315Z,0.00
2018-11-02T04:35:18.392Z,0.00
2018-11-02T04:36:18.356Z,0.00
2018-11-02T04:37:18.370Z,0.00
2018-11-02T04:38:18.392Z,0.00
2018-11-02T04:39:18.410Z,0.00
2018-11-02T04:40:18.466Z,0.00
2018-11-02T04:41:18.454Z,0.00
2018-11-02T04:42:18.483Z,0.00
2018-11-02T04:43:18.492Z,0.00
2018-11-02T04:44:18.510Z,0.00
2018-11-02T04:45:18.577Z,0.00
2018-11-02T04:46:18.551Z,0.00
2018-11-02T04:47:18.564Z,0.00
2018-11-02T04:48:18.597Z,0.00
2018-11-02T04:49:18.606Z,0.00
2018-11-02T04:50:18.634Z,0.00
2018-11-02T04:51:18.661Z,0.00
2018-11-02T04:52:18.692Z,0.00
2018-11-02T04:53:18.705Z,0.00
2018-11-02T04:54:18.709Z,0.00
2018-11-02T04:55:18.727Z,0.00
2018-11-02T04:56:18.743Z,0.00
2018-11-02T04:57:18.778Z,0.00
2018-11-02T04:58:18.784Z,0.00
2018-11-02T04:59:18.806Z,0.00
2018-11-02T05:00:18.824Z,0.00
2018-11-02T05:01:18.846Z,0.00
2018-11-02T05:02:18.860Z,0.00
2018-11-02T05:03:18.885Z,0.00
2018-11-02T05:04:18.899Z,0.00
2018-11-02T05:05:18.919Z,0.00
2018-11-02T05:06:18.939Z,0.00
2018-11-02T05:07:18.961Z,0.00
2018-11-02T05:08:18.977Z,0.00
2018-11-02T05:09:19.001Z,0.00
2018-11-02T05:10:19.018Z,0.00
2018-11-02T05:11:19.081Z,0.00
2018-11-02T05:12:19.054Z,0.00
2018-11-02T05:13:19.074Z,0.00
2018-11-02T05:14:19.102Z,0.00
2018-11-02T05:15:19.117Z,0.00
2018-11-02T05:16:19.140Z,0.00
2018-11-02T05:17:19.153Z,0.00
2018-11-02T05:18:19.182Z,0.00
2018-11-02T05:19:19.197Z,0.00
2018-11-02T05:20:19.217Z,0.00
2018-11-02T05:21:19.357Z,0.00
2018-11-02T05:22:19.253Z,0.00
2018-11-02T05:23:19.271Z,0.00
2018-11-02T05:24:19.291Z,0.00
2018-11-02T05:25:19.312Z,0.00
2018-11-02T05:26:19.343Z,0.00
2018-11-02T05:27:19.371Z,0.00
2018-11-02T05:28:19.382Z,0.00
2018-11-02T05:29:19.390Z,0.00
2018-11-02T05:30:19.415Z,0.00
2018-11-02T05:31:19.431Z,0.00
2018-11-02T05:32:19.460Z,0.00
2018-11-02T05:33:19.473Z,0.00
2018-11-02T05:34:19.489Z,0.00
2018-11-02T05:35:19.515Z,0.00
2018-11-02T05:36:19.532Z,0.00
2018-11-02T05:37:19.550Z,0.00
2018-11-02T05:38:19.573Z,0.00
2018-11-02T05:39:19.660Z,0.00
2018-11-02T05:40:19.609Z,0.00
2018-11-02T05:41:19.629Z,0.00
2018-11-02T05:42:19.647Z,0.00
2018-11-02T05:43:19.677Z,0.00
2018-11-02T05:44:19.692Z,0.00
2018-11-02T05:45:19.712Z,0.00
2018-11-02T05:46:19.739Z,4.00
2018-11-02T05:47:19.852Z,4.00
2018-11-02T05:48:19.774Z,4.00
2018-11-02T05:49:19.799Z,0.00
2018-11-02T05:50:19.810Z,4.00
2018-11-02T05:51:19.831Z,4.00
2018-11-02T05:52:19.857Z,8.00
2018-11-02T05:53:19.879Z,4.00
2018-11-02T05:54:19.962Z,8.00
2018-11-02T05:55:19.907Z,8.00
2018-11-02T05:56:19.930Z,12.00
2018-11-02T05:57:19.947Z,16.00
2018-11-02T05:58:19.975Z,20.00
2018-11-02T05:59:19.988Z,24.00
2018-11-02T06:00:20.024Z,28.00
2018-11-02T06:01:20.069Z,24.00
2018-11-02T06:02:20.052Z,28.00
2018-11-02T06:03:20.079Z,24.00
2018-11-02T06:04:20.090Z,24.00
2018-11-02T06:05:20.119Z,28.00
2018-11-02T06:06:20.130Z,28.00
2018-11-02T06:07:20.146Z,24.00
2018-11-02T06:08:20.167Z,24.00
2018-11-02T06:09:20.186Z,28.00
2018-11-02T06:10:20.211Z,28.00
2018-11-02T06:11:20.236Z,28.00
2018-11-02T06:12:20.268Z,32.00
2018-11-02T06:13:20.277Z,32.00
2018-11-02T06:14:20.295Z,44.00
2018-11-02T06:15:20.312Z,56.00
2018-11-02T06:16:20.328Z,76.00
2018-11-02T06:17:20.350Z,88.00
2018-11-02T06:18:20.367Z,96.00
2018-11-02T06:19:20.390Z,136.00
2018-11-02T06:20:20.414Z,212.00
2018-11-02T06:21:20.437Z,308.00
2018-11-02T06:22:20.456Z,404.00
2018-11-02T06:23:20.480Z,484.00
2018-11-02T06:24:20.528Z,556.00
2018-11-02T06:25:20.519Z,616.00
2018-11-02T06:26:20.550Z,672.00
2018-11-02T06:27:20.550Z,728.00
2018-11-02T06:28:20.565Z,772.00
2018-11-02T06:29:20.599Z,820.00
2018-11-02T06:30:20.665Z,872.00
2018-11-02T06:31:20.626Z,924.00
2018-11-02T06:32:20.688Z,984.00
2018-11-02T06:33:20.666Z,1040.00
2018-11-02T06:34:20.700Z,1100.00
2018-11-02T06:35:20.717Z,1156.00
2018-11-02T06:36:20.734Z,1216.00
2018-11-02T06:37:20.744Z,1284.00
2018-11-02T06:38:20.766Z,1352.00
2018-11-02T06:39:20.797Z,1440.00
2018-11-02T06:40:20.810Z,1544.00
2018-11-02T06:41:20.830Z,1672.00
2018-11-02T06:42:20.853Z,1808.00
2018-11-02T06:43:20.875Z,1920.00
2018-11-02T06:44:20.959Z,1980.00
2018-11-02T06:45:20.912Z,2076.00
2018-11-02T06:46:20.925Z,2152.00
2018-11-02T06:47:20.945Z,2236.00
2018-11-02T06:48:20.973Z,2324.00
2018-11-02T06:49:20.985Z,2412.00
2018-11-02T06:50:21.001Z,2484.00
2018-11-02T06:51:21.021Z,2568.00
2018-11-02T06:52:21.037Z,2632.00
2018-11-02T06:53:21.061Z,2676.00
2018-11-02T06:54:21.080Z,2760.00
2018-11-02T06:55:21.100Z,2892.00
2018-11-02T06:56:21.121Z,3000.00
2018-11-02T06:57:21.135Z,3708.00
2018-11-02T06:58:21.156Z,5144.00
2018-11-02T06:59:21.268Z,6056.00
2018-11-02T07:00:21.347Z,7036.00
2018-11-02T07:01:21.227Z,6220.00
2018-11-02T07:02:21.234Z,3868.00
2018-11-02T07:03:21.259Z,3764.00
2018-11-02T07:04:21.282Z,3772.00
2018-11-02T07:05:21.302Z,3664.00
2018-11-02T07:06:21.316Z,3572.00
2018-11-02T07:07:21.426Z,3604.00
2018-11-02T07:08:21.451Z,4156.00
2018-11-02T07:09:21.371Z,6976.00
2018-11-02T07:10:21.394Z,10024.00
2018-11-02T07:11:21.416Z,10944.00
2018-11-02T07:12:21.435Z,11108.00
2018-11-02T07:13:21.452Z,11036.00
2018-11-02T07:14:21.477Z,11380.00
2018-11-02T07:15:21.499Z,11424.00
2018-11-02T07:16:21.512Z,11328.00
2018-11-02T07:17:21.552Z,11272.00
2018-11-02T07:18:21.576Z,11156.00
2018-11-02T07:19:21.580Z,11172.00
2018-11-02T07:20:21.596Z,11028.00
2018-11-02T07:21:21.624Z,11172.00
2018-11-02T07:22:21.642Z,11076.00
2018-11-02T07:23:21.663Z,11588.00
2018-11-02T07:24:21.687Z,12156.00
2018-11-02T07:25:21.779Z,12320.00
2018-11-02T07:26:21.745Z,13140.00
2018-11-02T07:27:21.771Z,13208.00
2018-11-02T07:28:21.780Z,13512.00
2018-11-02T07:29:21.816Z,13940.00
2018-11-02T07:30:21.830Z,14112.00
2018-11-02T07:31:21.846Z,14496.00
2018-11-02T07:32:21.872Z,14336.00
2018-11-02T07:33:21.892Z,14112.00
2018-11-02T07:34:21.928Z,14240.00
2018-11-02T07:35:21.941Z,14560.00
2018-11-02T07:36:21.966Z,14464.00
2018-11-02T07:37:21.990Z,14368.00
2018-11-02T07:38:22.025Z,13944.00
2018-11-02T07:39:22.039Z,13788.00
2018-11-02T07:40:22.100Z,13868.00
2018-11-02T07:41:22.095Z,13876.00
2018-11-02T07:42:22.112Z,13536.00
2018-11-02T07:43:22.139Z,13288.00
2018-11-02T07:44:22.161Z,13740.00
2018-11-02T07:45:22.190Z,14212.00
2018-11-02T07:46:22.211Z,14204.00
2018-11-02T07:47:22.274Z,13956.00
2018-11-02T07:48:22.259Z,14236.00
2018-11-02T07:49:22.348Z,12928.00
2018-11-02T07:50:22.311Z,14116.00
2018-11-02T07:51:22.381Z,7312.00
2018-11-02T07:52:22.364Z,14460.00
2018-11-02T07:53:22.384Z,13716.00
2018-11-02T07:54:22.412Z,14912.00
2018-11-02T07:55:22.437Z,13984.00
2018-11-02T07:56:22.460Z,14568.00
2018-11-02T07:57:22.537Z,14080.00
2018-11-02T07:58:22.506Z,11496.00
2018-11-02T07:59:22.560Z,8416.00
2018-11-02T08:00:22.558Z,9376.00
2018-11-02T08:01:22.591Z,14368.00
2018-11-02T08:02:22.608Z,15000.00
2018-11-02T08:03:22.631Z,12492.00
2018-11-02T08:04:22.653Z,9068.00
2018-11-02T08:05:22.681Z,5816.00
2018-11-02T08:06:22.706Z,5372.00
2018-11-02T08:07:22.724Z,5256.00
2018-11-02T08:08:22.756Z,5056.00
2018-11-02T08:09:22.782Z,4992.00
2018-11-02T08:10:22.800Z,5428.00
2018-11-02T08:11:22.876Z,5844.00
2018-11-02T08:12:22.851Z,6036.00
2018-11-02T08:13:22.874Z,6232.00
2018-11-02T08:14:22.895Z,6332.00
2018-11-02T08:15:22.916Z,6328.00
2018-11-02T08:16:22.948Z,6056.00
2018-11-02T08:17:22.971Z,6204.00
2018-11-02T08:18:22.982Z,6504.00
2018-11-02T08:19:23.007Z,6472.00
2018-11-02T08:20:23.026Z,6976.00
2018-11-02T08:21:23.072Z,7124.00
2018-11-02T08:22:23.075Z,6840.00
2018-11-02T08:23:23.097Z,6544.00
2018-11-02T08:24:23.119Z,6616.00
2018-11-02T08:25:23.138Z,6348.00
2018-11-02T08:26:23.157Z,6808.00
2018-11-02T08:27:23.179Z,7252.00
2018-11-02T08:28:23.206Z,7444.00
2018-11-02T08:29:23.222Z,8408.00
2018-11-02T08:30:23.245Z,9224.00
2018-11-02T08:31:23.267Z,9304.00
2018-11-02T08:32:23.294Z,9184.00
2018-11-02T08:33:23.311Z,9692.00
2018-11-02T08:34:23.333Z,9404.00
2018-11-02T08:35:23.349Z,9228.00
2018-11-02T08:36:23.376Z,9708.00
2018-11-02T08:37:23.393Z,9960.00
2018-11-02T08:38:23.418Z,9124.00
2018-11-02T08:39:23.459Z,9528.00
2018-11-02T08:40:23.458Z,9612.00
2018-11-02T08:41:23.480Z,9988.00
2018-11-02T08:42:23.502Z,10072.00
2018-11-02T08:43:23.523Z,10228.00
2018-11-02T08:44:23.549Z,9444.00
2018-11-02T08:45:23.573Z,8276.00
2018-11-02T08:46:23.669Z,8076.00
2018-11-02T08:47:23.606Z,7584.00
2018-11-02T08:48:23.632Z,6784.00
2018-11-02T08:49:23.652Z,6760.00
2018-11-02T08:50:23.673Z,6548.00
2018-11-02T08:51:23.694Z,5940.00
2018-11-02T08:52:23.836Z,5724.00
2018-11-02T08:53:23.739Z,6180.00
2018-11-02T08:54:23.768Z,6404.00
2018-11-02T08:55:23.813Z,6536.00
2018-11-02T08:56:23.812Z,7120.00
2018-11-02T08:57:23.851Z,8940.00
2018-11-02T08:58:24.021Z,10532.00
2018-11-02T08:59:23.974Z,9676.00
2018-11-02T09:00:23.889Z,10728.00
2018-11-02T09:01:23.915Z,10324.00
2018-11-02T09:02:23.931Z,9540.00
2018-11-02T09:03:23.957Z,9660.00
2018-11-02T09:04:23.968Z,9508.00
2018-11-02T09:05:24.009Z,10000.00
2018-11-02T09:06:24.015Z,10844.00
2018-11-02T09:07:24.052Z,10760.00
2018-11-02T09:08:24.053Z,10584.00
2018-11-02T09:09:24.082Z,10340.00
2018-11-02T09:10:24.104Z,9608.00
2018-11-02T09:11:24.126Z,9128.00
2018-11-02T09:12:24.151Z,8988.00
2018-11-02T09:13:24.161Z,8384.00
2018-11-02T09:14:24.177Z,8084.00
2018-11-02T09:15:24.205Z,7252.00
2018-11-02T09:16:24.225Z,6520.00
2018-11-02T09:17:24.242Z,6200.00
2018-11-02T09:18:24.344Z,5612.00
2018-11-02T09:19:24.352Z,5332.00
2018-11-02T09:20:24.313Z,5172.00
2018-11-02T09:21:24.332Z,5056.00
2018-11-02T09:22:24.373Z,4972.00
2018-11-02T09:23:24.373Z,4796.00
2018-11-02T09:24:24.396Z,4792.00
2018-11-02T09:25:24.425Z,4920.00
2018-11-02T09:26:24.446Z,5256.00
2018-11-02T09:27:24.555Z,5716.00
2018-11-02T09:28:24.481Z,5736.00
2018-11-02T09:29:24.535Z,5536.00
2018-11-02T09:30:24.526Z,5048.00
2018-11-02T09:31:24.550Z,4964.00
2018-11-02T09:32:24.563Z,5200.00
2018-11-02T09:33:24.596Z,4852.00
2018-11-02T09:34:24.609Z,5148.00
2018-11-02T09:35:24.632Z,4924.00
2018-11-02T09:36:24.646Z,4764.00
2018-11-02T09:37:24.675Z,5316.00
2018-11-02T09:38:24.694Z,5748.00
2018-11-02T09:39:24.731Z,5620.00
2018-11-02T09:40:24.806Z,5152.00
2018-11-02T09:41:24.754Z,5288.00
2018-11-02T09:42:24.832Z,5360.00
2018-11-02T09:43:24.798Z,5400.00
2018-11-02T09:44:24.826Z,4988.00
2018-11-02T09:45:24.844Z,4720.00
2018-11-02T09:46:24.876Z,4424.00
2018-11-02T09:47:24.884Z,4084.00
2018-11-02T09:48:24.909Z,3736.00
2018-11-02T09:49:24.925Z,3648.00
2018-11-02T09:50:24.942Z,3904.00
2018-11-02T09:51:25.035Z,3956.00
2018-11-02T09:52:24.985Z,3328.00
2018-11-02T09:53:25.002Z,3340.00
2018-11-02T09:54:25.026Z,3600.00
2018-11-02T09:55:25.052Z,3640.00
2018-11-02T09:56:25.068Z,3844.00
2018-11-02T09:57:25.144Z,4020.00
2018-11-02T09:58:25.112Z,4152.00
2018-11-02T09:59:25.125Z,4176.00
2018-11-02T10:00:25.158Z,4316.00
2018-11-02T10:01:25.176Z,4260.00
2018-11-02T10:02:25.198Z,4440.00
2018-11-02T10:03:25.211Z,4408.00
2018-11-02T10:04:25.233Z,4276.00
2018-11-02T10:05:25.272Z,4032.00
2018-11-02T10:06:25.274Z,3948.00
2018-11-02T10:07:25.305Z,4004.00
2018-11-02T10:08:25.367Z,4212.00
2018-11-02T10:09:25.341Z,4988.00
2018-11-02T10:10:25.375Z,6228.00
2018-11-02T10:11:25.381Z,6452.00
2018-11-02T10:12:25.412Z,6112.00
2018-11-02T10:13:25.425Z,6272.00
2018-11-02T10:14:25.445Z,6752.00
2018-11-02T10:15:25.472Z,7732.00
2018-11-02T10:16:25.491Z,8004.00
2018-11-02T10:17:25.510Z,8428.00
2018-11-02T10:18:25.537Z,8920.00
2018-11-02T10:19:25.548Z,9080.00
2018-11-02T10:20:25.579Z,9388.00
2018-11-02T10:21:25.637Z,9604.00
2018-11-02T10:22:25.611Z,10312.00
2018-11-02T10:23:25.632Z,10820.00
2018-11-02T10:24:25.658Z,10484.00
2018-11-02T10:25:25.692Z,11364.00
2018-11-02T10:26:25.700Z,11412.00
2018-11-02T10:27:25.733Z,11128.00
2018-11-02T10:28:25.740Z,11104.00
2018-11-02T10:29:25.762Z,11440.00
2018-11-02T10:30:25.783Z,11296.00
2018-11-02T10:31:25.822Z,11420.00
2018-11-02T10:32:25.842Z,11084.00
2018-11-02T10:33:25.844Z,11492.00
2018-11-02T10:34:25.877Z,11248.00
2018-11-02T10:35:25.939Z,11824.00
2018-11-02T10:36:25.917Z,10936.00
2018-11-02T10:37:25.946Z,11376.00
2018-11-02T10:38:25.960Z,10792.00
2018-11-02T10:39:26.047Z,11308.00
2018-11-02T10:40:25.998Z,10392.00
2018-11-02T10:41:26.029Z,10916.00
2018-11-02T10:42:26.049Z,11648.00
2018-11-02T10:43:26.070Z,10216.00
2018-11-02T10:44:26.164Z,9772.00
2018-11-02T10:45:26.162Z,9456.00
2018-11-02T10:46:26.125Z,9332.00
2018-11-02T10:47:26.153Z,9196.00
2018-11-02T10:48:26.176Z,9708.00
2018-11-02T10:49:26.254Z,10020.00
2018-11-02T10:50:26.218Z,9856.00
2018-11-02T10:51:26.253Z,9560.00
2018-11-02T10:52:26.268Z,9596.00
2018-11-02T10:53:26.287Z,9352.00
2018-11-02T10:54:26.347Z,8800.00
2018-11-02T10:55:26.337Z,8540.00
2018-11-02T10:56:26.368Z,8548.00
2018-11-02T10:57:26.371Z,9176.00
2018-11-02T10:58:26.398Z,9596.00
2018-11-02T10:59:26.416Z,9568.00
2018-11-02T11:00:26.436Z,9212.00
2018-11-02T11:01:26.509Z,8136.00
2018-11-02T11:02:26.486Z,7656.00
2018-11-02T11:03:26.501Z,7472.00
2018-11-02T11:04:26.530Z,6584.00
2018-11-02T11:05:26.580Z,5748.00
2018-11-02T11:06:26.570Z,5416.00
2018-11-02T11:07:26.608Z,6056.00
2018-11-02T11:08:26.610Z,6532.00
2018-11-02T11:09:26.631Z,6568.00
2018-11-02T11:10:26.682Z,6296.00
2018-11-02T11:11:26.710Z,5740.00
2018-11-02T11:12:26.867Z,5288.00
2018-11-02T11:13:27.195Z,4980.00
2018-11-02T11:14:26.745Z,4832.00
2018-11-02T11:15:26.766Z,4564.00
2018-11-02T11:16:26.793Z,4256.00
2018-11-02T11:17:26.840Z,4004.00
2018-11-02T11:18:26.834Z,3832.00
2018-11-02T11:19:26.859Z,3588.00
2018-11-02T11:20:26.896Z,3360.00
2018-11-02T11:21:27.013Z,3288.00
2018-11-02T11:22:26.920Z,3280.00
2018-11-02T11:23:26.954Z,3304.00
2018-11-02T11:24:26.960Z,3144.00
2018-11-02T11:25:26.988Z,2984.00
2018-11-02T11:26:27.018Z,2660.00
2018-11-02T11:27:27.022Z,2328.00
2018-11-02T11:28:27.053Z,2116.00
2018-11-02T11:29:27.179Z,2260.00
2018-11-02T11:30:27.091Z,2588.00
2018-11-02T11:31:27.107Z,2672.00
2018-11-02T11:32:27.133Z,2592.00
2018-11-02T11:33:27.149Z,2740.00
2018-11-02T11:34:27.173Z,2800.00
2018-11-02T11:35:27.195Z,4320.00
2018-11-02T11:36:27.213Z,3436.00
2018-11-02T11:37:27.259Z,3892.00
2018-11-02T11:38:27.263Z,5228.00
2018-11-02T11:39:27.306Z,6464.00
2018-11-02T11:40:27.300Z,6696.00
2018-11-02T11:41:27.319Z,7300.00
2018-11-02T11:42:27.335Z,8500.00
2018-11-02T11:43:27.359Z,7468.00
2018-11-02T11:44:27.389Z,6964.00
2018-11-02T11:45:27.398Z,6856.00
2018-11-02T11:46:27.423Z,6340.00
2018-11-02T11:47:27.443Z,5852.00
2018-11-02T11:48:27.495Z,5576.00
2018-11-02T11:49:27.481Z,5620.00
2018-11-02T11:50:27.507Z,5392.00
2018-11-02T11:51:27.533Z,5232.00
2018-11-02T11:52:27.548Z,4940.00
2018-11-02T11:53:27.569Z,4836.00
2018-11-02T11:54:27.652Z,4948.00
2018-11-02T11:55:27.611Z,5144.00
2018-11-02T11:56:27.633Z,5476.00
2018-11-02T11:57:27.662Z,5860.00
2018-11-02T11:58:27.677Z,6164.00
2018-11-02T11:59:27.709Z,6384.00
2018-11-02T12:00:27.723Z,6252.00
2018-11-02T12:01:27.746Z,6464.00
2018-11-02T12:02:27.896Z,8072.00
2018-11-02T12:03:27.783Z,8936.00
2018-11-02T12:04:28.025Z,7672.00
2018-11-02T12:05:27.826Z,7992.00
2018-11-02T12:06:27.844Z,7248.00
2018-11-02T12:07:27.892Z,7336.00
2018-11-02T12:08:27.881Z,7568.00
2018-11-02T12:09:27.900Z,7900.00
2018-11-02T12:10:28.034Z,7852.00
2018-11-02T12:11:27.948Z,8152.00
2018-11-02T12:12:27.969Z,8000.00
2018-11-02T12:13:27.998Z,7780.00
2018-11-02T12:14:28.023Z,7612.00
2018-11-02T12:15:28.035Z,7520.00
2018-11-02T12:16:28.053Z,7496.00
2018-11-02T12:17:28.075Z,7532.00
2018-11-02T12:18:28.112Z,7556.00
2018-11-02T12:19:28.123Z,7408.00
2018-11-02T12:20:28.138Z,7220.00
2018-11-02T12:21:28.164Z,7472.00
2018-11-02T12:22:28.209Z,7740.00
2018-11-02T12:23:28.266Z,7356.00
2018-11-02T12:24:28.227Z,7420.00
2018-11-02T12:25:28.246Z,6888.00
2018-11-02T12:26:28.265Z,6724.00
2018-11-02T12:27:28.291Z,6672.00
2018-11-02T12:28:28.313Z,6256.00
2018-11-02T12:29:28.332Z,6216.00
2018-11-02T12:30:28.351Z,6408.00
2018-11-02T12:31:28.371Z,6436.00
2018-11-02T12:32:28.398Z,6052.00
2018-11-02T12:33:28.425Z,6736.00
2018-11-02T12:34:28.438Z,6508.00
2018-11-02T12:35:28.459Z,6272.00
2018-11-02T12:36:28.477Z,6184.00
2018-11-02T12:37:28.501Z,6144.00